Time;durP1;ratioP1;P1;durP2;ratioP2;P2;SDS_P1;SDS_P2;PMS_P1;PMS_P2;Temp;Humidity;BMP_temperature;BMP_pressure;BME280_temperature;BME280_humidity;BME280_pressure;Samples;Min_cycle;Max_cycle;Signal;HPM_P1;HPM_P2
2023/05/02 00:01:49;;;;;;;3.60;3.25;;;;;;;;;;5094456;28;20028;-76
2023/05/02 00:04:25;;;;;;;4.05;3.65;;;;;;;;;;5075860;28;20029;-76
2023/05/02 00:06:57;;;;;;;5.15;3.90;;;;;;;;;;5075667;28;20487;-76
2023/05/02 00:09:31;;;;;;;5.88;3.70;;;;;;;;;;5090751;28;20048;-77
2023/05/02 00:12:14;;;;;;;4.13;3.72;;;;;;;;;;5075172;28;20012;-77
2023/05/02 00:31:07;;;;;;;4.78;4.07;;;;;;;;;;5076475;28;20027;-76
2023/05/02 00:40:38;;;;;;;7.43;4.55;;;;;;;;;;5076827;28;20154;-76
2023/05/02 00:46:23;;;;;;;6.78;3.40;;;;;;;;;;5077282;28;20447;-76
2023/05/02 00:58:23;;;;;;;3.67;3.33;;;;;;;;;;5073727;28;20043;-76
2023/05/02 01:01:09;;;;;;;14.73;5.28;;;;;;;;;;5090976;28;20070;-77
2023/05/02 01:03:41;;;;;;;6.40;3.50;;;;;;;;;;5093260;28;20029;-76
2023/05/02 01:06:26;;;;;;;5.45;4.72;;;;;;;;;;5076069;28;20469;-75
2023/05/02 01:08:54;;;;;;;5.45;4.25;;;;;;;;;;5091841;28;20040;-76
2023/05/02 01:11:35;;;;;;;4.88;4.20;;;;;;;;;;5111875;28;20012;-76
2023/05/02 01:14:04;;;;;;;8.52;4.55;;;;;;;;;;5111822;28;20032;-76
2023/05/02 01:16:30;;;;;;;;;;;;;;;;;;5099009;28;20385;-77
2023/05/02 01:18:58;;;;;;;4.75;3.42;;;;;;;;;;5094318;28;19929;-76
2023/05/02 01:21:25;;;;;;;4.15;3.50;;;;;;;;;;5111660;28;20024;-76
2023/05/02 01:24:11;;;;;;;6.65;4.25;;;;;;;;;;5095767;28;20385;-76
2023/05/02 01:26:51;;;;;;;4.55;3.63;;;;;;;;;;5112140;28;20090;-76
2023/05/02 01:29:17;;;;;;;4.53;3.72;;;;;;;;;;5111622;28;20396;-77
2023/05/02 01:31:46;;;;;;;5.40;4.28;;;;;;;;;;5096383;28;20020;-76
2023/05/02 01:34:12;;;;;;;4.80;3.80;;;;;;;;;;5110647;28;20032;-76
2023/05/02 01:36:42;;;;;;;5.22;4.10;;;;;;;;;;5108976;28;20762;-76
2023/05/02 01:39:09;;;;;;;7.20;4.35;;;;;;;;;;5112240;28;20119;-76
2023/05/02 01:41:36;;;;;;;6.63;3.72;;;;;;;;;;5096221;28;20049;-76
2023/05/02 01:44:03;;;;;;;5.95;3.88;;;;;;;;;;5110647;28;20081;-76
2023/05/02 01:46:41;;;;;;;5.45;3.90;;;;;;;;;;5110840;28;20020;-76
2023/05/02 01:49:08;;;;;;;8.52;4.32;;;;;;;;;;5095392;28;20028;-76
2023/05/02 01:51:35;;;;;;;4.63;3.88;;;;;;;;;;5095676;28;20024;-76
2023/05/02 01:54:04;;;;;;;5.32;4.22;;;;;;;;;;5096970;28;20373;-76
2023/05/02 01:56:32;;;;;;;4.75;3.83;;;;;;;;;;5113405;28;20430;-76
2023/05/02 01:58:58;;;;;;;4.03;3.28;;;;;;;;;;5096849;28;20031;-76
2023/05/02 02:01:26;;;;;;;3.75;3.40;;;;;;;;;;5096281;28;20479;-77
2023/05/02 02:03:54;;;;;;;5.78;3.92;;;;;;;;;;5113748;28;20024;-77
2023/05/02 02:06:20;;;;;;;8.60;4.72;;;;;;;;;;5098772;28;20147;-76
2023/05/02 02:08:46;;;;;;;5.55;4.20;;;;;;;;;;5112293;28;20039;-76
2023/05/02 02:11:16;;;;;;;4.35;3.75;;;;;;;;;;5094653;28;20031;-76
2023/05/02 02:13:42;;;;;;;;;;;;;;;;;;5110703;28;20026;-76
2023/05/02 02:16:10;;;;;;;6.85;3.28;;;;;;;;;;5094635;28;20011;-76
2023/05/02 02:18:37;;;;;;;7.00;4.65;;;;;;;;;;5112063;28;20023;-76
2023/05/02 02:21:06;;;;;;;6.13;4.50;;;;;;;;;;5093818;28;20252;-76
2023/05/02 02:23:33;;;;;;;4.22;3.83;;;;;;;;;;5109755;28;20055;-76
2023/05/02 02:26:00;;;;;;;5.90;3.75;;;;;;;;;;5108322;28;20030;-76
2023/05/02 02:28:26;;;;;;;4.43;3.55;;;;;;;;;;5108646;28;20048;-76
2023/05/02 02:30:53;;;;;;;14.13;4.25;;;;;;;;;;5092181;28;20024;-75
2023/05/02 02:33:19;;;;;;;6.55;4.65;;;;;;;;;;5091283;28;20031;-76
2023/05/02 02:35:53;;;;;;;6.18;4.07;;;;;;;;;;5091458;28;20021;-75
2023/05/02 02:38:23;;;;;;;6.35;5.30;;;;;;;;;;5091606;28;20531;-75
2023/05/02 02:40:57;;;;;;;5.63;4.40;;;;;;;;;;5107845;28;20023;-75
2023/05/02 02:43:23;;;;;;;4.80;3.47;;;;;;;;;;5092100;28;20071;-75
2023/05/02 02:45:52;;;;;;;5.85;3.95;;;;;;;;;;5106364;28;20024;-75
2023/05/02 02:48:30;;;;;;;6.60;3.85;;;;;;;;;;5106613;28;20032;-75
2023/05/02 02:51:02;;;;;;;4.40;3.78;;;;;;;;;;5090869;28;20024;-75
2023/05/02 02:53:54;;;;;;;4.15;3.35;;;;;;;;;;5106396;28;20024;-75
2023/05/02 02:56:24;;;;;;;9.35;3.92;;;;;;;;;;5075795;28;20223;-75
2023/05/02 02:58:53;;;;;;;;;;;;;;;;;;5093090;28;20020;-75
2023/05/02 03:01:20;;;;;;;4.13;3.30;;;;;;;;;;5091379;28;19911;-75
2023/05/02 03:03:47;;;;;;;6.53;4.00;;;;;;;;;;5109259;28;20024;-75
2023/05/02 03:06:13;;;;;;;5.57;3.70;;;;;;;;;;5107565;28;20030;-75
2023/05/02 03:08:43;;;;;;;4.53;3.88;;;;;;;;;;5106932;28;20079;-75
2023/05/02 03:11:09;;;;;;;6.93;4.57;;;;;;;;;;5091600;28;20122;-75
2023/05/02 03:13:36;;;;;;;4.32;3.15;;;;;;;;;;5107419;28;20020;-75
2023/05/02 03:16:14;;;;;;;5.20;4.05;;;;;;;;;;5090933;28;20621;-75
2023/05/02 03:18:40;;;;;;;4.45;3.53;;;;;;;;;;5091385;28;20032;-76
2023/05/02 03:21:06;;;;;;;4.90;3.88;;;;;;;;;;5093165;28;20020;-76
2023/05/02 03:23:32;;;;;;;5.78;3.20;;;;;;;;;;5093186;28;20039;-76
2023/05/02 03:25:58;;;;;;;4.30;3.80;;;;;;;;;;5092649;28;20028;-76
2023/05/02 03:28:24;;;;;;;4.53;3.83;;;;;;;;;;5090093;28;20250;-76
2023/05/02 03:30:52;;;;;;;5.72;3.85;;;;;;;;;;5093927;28;20027;-76
2023/05/02 03:33:19;;;;;;;7.18;3.42;;;;;;;;;;5094809;28;20314;-76
2023/05/02 03:35:45;;;;;;;5.45;3.50;;;;;;;;;;5091304;28;20036;-75
2023/05/02 03:38:11;;;;;;;3.10;2.80;;;;;;;;;;5105485;28;20024;-76
2023/05/02 03:40:37;;;;;;;4.50;3.70;;;;;;;;;;5105712;28;20570;-75
2023/05/02 03:43:03;;;;;;;4.20;3.78;;;;;;;;;;5105359;28;20472;-75
2023/05/02 03:45:29;;;;;;;4.28;3.75;;;;;;;;;;5090000;28;20028;-75
2023/05/02 03:47:55;;;;;;;5.25;4.07;;;;;;;;;;5089879;28;20028;-75
2023/05/02 03:50:22;;;;;;;4.60;3.40;;;;;;;;;;5090157;28;20111;-76
2023/05/02 03:52:48;;;;;;;6.80;4.78;;;;;;;;;;5090052;28;20024;-76
2023/05/02 03:55:14;;;;;;;6.78;4.75;;;;;;;;;;5105820;28;20464;-76
2023/05/02 03:57:40;;;;;;;6.38;4.30;;;;;;;;;;5105056;28;20215;-76
2023/05/02 04:00:06;;;;;;;6.10;3.92;;;;;;;;;;5089825;28;20025;-76
2023/05/02 04:02:32;;;;;;;5.40;4.25;;;;;;;;;;5089322;28;20473;-76
2023/05/02 04:04:59;;;;;;;6.15;4.18;;;;;;;;;;5089010;28;20028;-76
2023/05/02 04:07:25;;;;;;;7.85;4.75;;;;;;;;;;5105486;28;20059;-76
2023/05/02 04:09:51;;;;;;;6.90;4.70;;;;;;;;;;5105687;28;20051;-76
2023/05/02 04:12:17;;;;;;;6.07;4.25;;;;;;;;;;5107376;28;20028;-76
2023/05/02 04:14:43;;;;;;;7.57;5.03;;;;;;;;;;5090950;28;20035;-76
2023/05/02 04:17:09;;;;;;;7.50;4.93;;;;;;;;;;5107036;28;20444;-76
2023/05/02 04:19:35;;;;;;;6.88;4.55;;;;;;;;;;5107011;28;20048;-76
2023/05/02 04:22:02;;;;;;;5.35;4.15;;;;;;;;;;5106334;28;20379;-76
2023/05/02 04:24:28;;;;;;;7.35;4.18;;;;;;;;;;5106771;28;20028;-75
2023/05/02 04:26:54;;;;;;;6.45;5.20;;;;;;;;;;5091004;28;20044;-76
2023/05/02 04:29:20;;;;;;;4.28;3.85;;;;;;;;;;5102304;28;20035;-74
2023/05/02 04:31:47;;;;;;;6.18;4.55;;;;;;;;;;5100212;28;20059;-75
2023/05/02 04:34:13;;;;;;;5.78;4.53;;;;;;;;;;5089774;28;20124;-76
2023/05/02 04:36:39;;;;;;;8.15;4.90;;;;;;;;;;5093145;28;20020;-76
2023/05/02 04:39:06;;;;;;;10.07;6.55;;;;;;;;;;5092252;28;20084;-76
2023/05/02 04:41:33;;;;;;;8.13;4.18;;;;;;;;;;5092162;28;20427;-75
2023/05/02 04:43:59;;;;;;;7.78;5.15;;;;;;;;;;5090826;28;20034;-76
2023/05/02 04:46:25;;;;;;;6.03;4.43;;;;;;;;;;5090523;28;20024;-75
2023/05/02 04:48:51;;;;;;;8.45;5.93;;;;;;;;;;5088299;28;20147;-75
2023/05/02 04:51:17;;;;;;;9.57;5.47;;;;;;;;;;5088450;28;20028;-76
2023/05/02 04:53:43;;;;;;;5.53;4.75;;;;;;;;;;5088187;28;20501;-76
2023/05/02 04:56:10;;;;;;;7.10;4.28;;;;;;;;;;5088667;28;20238;-75
2023/05/02 04:58:37;;;;;;;7.47;5.03;;;;;;;;;;5089290;28;20028;-75
2023/05/02 05:01:02;;;;;;;10.50;4.90;;;;;;;;;;5091474;28;20020;-75
2023/05/02 05:03:29;;;;;;;10.45;5.93;;;;;;;;;;5091101;28;20383;-76
2023/05/02 05:05:56;;;;;;;14.18;7.97;;;;;;;;;;5091440;28;20567;-75
2023/05/02 05:08:22;;;;;;;12.18;7.60;;;;;;;;;;5089897;28;20106;-74
2023/05/02 05:10:48;;;;;;;10.13;6.35;;;;;;;;;;5090592;28;20055;-74
2023/05/02 05:13:14;;;;;;;11.30;6.60;;;;;;;;;;5090145;28;20050;-75
2023/05/02 05:15:40;;;;;;;10.70;6.18;;;;;;;;;;5091275;28;20106;-75
2023/05/02 05:18:06;;;;;;;10.77;6.93;;;;;;;;;;5090232;28;20210;-75
2023/05/02 05:20:33;;;;;;;12.15;7.85;;;;;;;;;;5091565;28;20024;-75
2023/05/02 05:22:59;;;;;;;12.88;8.07;;;;;;;;;;5092923;28;20023;-77
2023/05/02 05:25:26;;;;;;;14.52;6.40;;;;;;;;;;5079895;28;20083;-75
2023/05/02 05:27:55;;;;;;;7.25;5.72;;;;;;;;;;5073409;28;20044;-75
2023/05/02 05:30:22;;;;;;;9.50;6.60;;;;;;;;;;5072763;28;20523;-74
2023/05/02 05:32:48;;;;;;;7.72;5.75;;;;;;;;;;5074871;28;20042;-74
2023/05/02 05:35:14;;;;;;;9.93;5.20;;;;;;;;;;5075715;28;20032;-75
2023/05/02 05:37:40;;;;;;;9.48;5.78;;;;;;;;;;5077653;28;20335;-76
2023/05/02 05:40:07;;;;;;;8.20;5.95;;;;;;;;;;5073860;28;20029;-76
2023/05/02 05:42:33;;;;;;;8.00;5.38;;;;;;;;;;5074433;28;20021;-76
2023/05/02 05:44:59;;;;;;;5.13;4.25;;;;;;;;;;5072968;28;20032;-76
2023/05/02 05:47:25;;;;;;;7.30;4.70;;;;;;;;;;5068569;28;20098;-75
2023/05/02 05:49:54;;;;;;;5.28;4.78;;;;;;;;;;5072245;28;20061;-76
2023/05/02 05:52:20;;;;;;;5.63;5.13;;;;;;;;;;5070117;28;20054;-74
2023/05/02 05:54:46;;;;;;;8.55;4.22;;;;;;;;;;5073047;28;20532;-75
2023/05/02 05:57:12;;;;;;;5.47;3.90;;;;;;;;;;5070539;28;20166;-75
2023/05/02 05:59:38;;;;;;;4.30;3.90;;;;;;;;;;5069866;28;20193;-76
2023/05/02 06:02:04;;;;;;;5.45;3.92;;;;;;;;;;5068733;28;20288;-75
2023/05/02 06:04:31;;;;;;;6.18;3.80;;;;;;;;;;5069360;28;20541;-75
2023/05/02 06:06:57;;;;;;;6.00;4.25;;;;;;;;;;5073130;28;20028;-76
2023/05/02 06:09:22;;;;;;;9.60;4.72;;;;;;;;;;5072169;28;20128;-75
2023/05/02 06:11:48;;;;;;;5.10;3.50;;;;;;;;;;5073914;28;20506;-75
2023/05/02 06:14:15;;;;;;;4.78;3.63;;;;;;;;;;5072690;28;20032;-75
2023/05/02 06:16:41;;;;;;;6.70;4.00;;;;;;;;;;5072324;28;20031;-77
2023/05/02 06:19:07;;;;;;;6.22;4.15;;;;;;;;;;5071044;28;20086;-75
2023/05/02 06:21:35;;;;;;;4.63;3.72;;;;;;;;;;5069376;28;20067;-76
2023/05/02 06:24:01;;;;;;;5.40;4.05;;;;;;;;;;5069107;28;20032;-76
2023/05/02 06:26:27;;;;;;;4.20;3.67;;;;;;;;;;5106474;28;20056;-76
2023/05/02 06:28:54;;;;;;;5.65;3.80;;;;;;;;;;5092849;28;20036;-75
2023/05/02 06:31:20;;;;;;;4.93;4.10;;;;;;;;;;5096526;28;20024;-75
2023/05/02 06:33:46;;;;;;;4.55;3.70;;;;;;;;;;5112694;28;20024;-77
2023/05/02 06:36:12;;;;;;;6.03;4.75;;;;;;;;;;5108216;28;20480;-75
2023/05/02 06:38:38;;;;;;;4.05;3.65;;;;;;;;;;5092158;28;20031;-75
2023/05/02 06:41:04;;;;;;;5.40;4.57;;;;;;;;;;5106406;28;20023;-75
2023/05/02 06:43:31;;;;;;;4.63;4.10;;;;;;;;;;5107579;28;20050;-77
2023/05/02 06:45:57;;;;;;;6.75;4.28;;;;;;;;;;5091875;28;20031;-75
2023/05/02 06:48:23;;;;;;;7.32;4.45;;;;;;;;;;5090853;28;20024;-76
2023/05/02 06:50:52;;;;;;;4.60;3.78;;;;;;;;;;5108158;28;20105;-75
2023/05/02 06:53:18;;;;;;;4.80;4.30;;;;;;;;;;5089160;28;20607;-76
2023/05/02 06:55:45;;;;;;;4.55;4.03;;;;;;;;;;5106681;28;20681;-76
2023/05/02 06:58:11;;;;;;;5.53;3.80;;;;;;;;;;5106348;28;20027;-74
2023/05/02 07:00:37;;;;;;;6.72;4.15;;;;;;;;;;5089410;28;20186;-75
2023/05/02 07:03:04;;;;;;;4.47;3.22;;;;;;;;;;5106834;28;20190;-75
2023/05/02 07:05:30;;;;;;;6.65;3.80;;;;;;;;;;5090472;28;20024;-76
2023/05/02 07:07:56;;;;;;;7.35;4.18;;;;;;;;;;5105179;28;20038;-77
2023/05/02 07:10:22;;;;;;;4.57;3.70;;;;;;;;;;5092174;28;20472;-76
2023/05/02 07:12:48;;;;;;;4.70;3.97;;;;;;;;;;5089837;28;20024;-77
2023/05/02 07:15:15;;;;;;;4.25;3.85;;;;;;;;;;5089460;28;20388;-77
2023/05/02 07:17:41;;;;;;;7.55;3.88;;;;;;;;;;5105663;28;20042;-77
2023/05/02 07:20:08;;;;;;;5.55;4.20;;;;;;;;;;5091426;28;20437;-76
2023/05/02 07:22:34;;;;;;;6.18;4.20;;;;;;;;;;5105203;28;20063;-75
2023/05/02 07:25:03;;;;;;;6.65;4.30;;;;;;;;;;5090844;28;20425;-77
2023/05/02 07:27:29;;;;;;;7.03;4.70;;;;;;;;;;5106558;28;20036;-77
2023/05/02 07:29:55;;;;;;;7.63;4.47;;;;;;;;;;5092294;28;20020;-76
2023/05/02 07:32:21;;;;;;;5.18;4.13;;;;;;;;;;5093579;28;20665;-75
2023/05/02 07:34:48;;;;;;;5.05;4.55;;;;;;;;;;5107670;28;20027;-76
2023/05/02 07:37:14;;;;;;;4.95;3.95;;;;;;;;;;5091675;28;20031;-77
2023/05/02 07:39:40;;;;;;;5.55;4.63;;;;;;;;;;5093789;28;20059;-78
2023/05/02 07:42:08;;;;;;;6.75;4.47;;;;;;;;;;5090229;28;20056;-76
2023/05/02 07:44:35;;;;;;;9.18;5.38;;;;;;;;;;5107368;28;20530;-76
2023/05/02 07:47:01;;;;;;;5.20;3.63;;;;;;;;;;5106420;28;20129;-76
2023/05/02 07:49:28;;;;;;;5.05;4.35;;;;;;;;;;5088811;28;20032;-76
2023/05/02 07:51:55;;;;;;;7.68;4.55;;;;;;;;;;5091552;28;20169;-76
2023/05/02 07:54:21;;;;;;;7.03;4.70;;;;;;;;;;5095553;28;20253;-76
2023/05/02 07:56:47;;;;;;;7.53;5.25;;;;;;;;;;5107509;28;20032;-76
2023/05/02 07:59:14;;;;;;;5.10;4.60;;;;;;;;;;5095376;28;20177;-76
2023/05/02 08:01:40;;;;;;;5.25;4.53;;;;;;;;;;5094446;28;20027;-78
2023/05/02 08:04:06;;;;;;;8.32;5.55;;;;;;;;;;5091991;28;20021;-76
2023/05/02 08:06:32;;;;;;;8.20;5.43;;;;;;;;;;5111014;28;20141;-76
2023/05/02 08:08:59;;;;;;;7.13;5.15;;;;;;;;;;5106278;28;20035;-77
2023/05/02 08:11:25;;;;;;;7.65;5.82;;;;;;;;;;5093538;28;20031;-76
2023/05/02 08:13:54;;;;;;;6.93;5.63;;;;;;;;;;5096114;28;20559;-76
2023/05/02 08:16:20;;;;;;;;;;;;;;;;;;5112483;28;20016;-76
2023/05/02 08:18:46;;;;;;;7.22;5.28;;;;;;;;;;5098135;28;19908;-77
2023/05/02 08:21:12;;;;;;;8.93;5.55;;;;;;;;;;5096686;28;20039;-76
2023/05/02 08:23:40;;;;;;;7.22;5.50;;;;;;;;;;5108106;28;20024;-76
2023/05/02 08:26:06;;;;;;;6.63;5.13;;;;;;;;;;5111376;28;20034;-76
2023/05/02 08:28:32;;;;;;;13.25;5.88;;;;;;;;;;5095318;28;20103;-75
2023/05/02 08:30:58;;;;;;;7.05;5.55;;;;;;;;;;5099497;28;20024;-75
2023/05/02 08:33:25;;;;;;;9.68;6.22;;;;;;;;;;5099251;28;20020;-76
2023/05/02 08:35:52;;;;;;;8.18;6.40;;;;;;;;;;5096683;28;20024;-76
2023/05/02 08:38:20;;;;;;;8.80;6.63;;;;;;;;;;5096885;28;20035;-76
2023/05/02 08:40:46;;;;;;;12.15;6.97;;;;;;;;;;5098073;28;20027;-76
2023/05/02 08:43:12;;;;;;;6.88;5.75;;;;;;;;;;5099352;28;20028;-75
2023/05/02 08:45:39;;;;;;;9.73;5.75;;;;;;;;;;5095565;28;20130;-76
2023/05/02 08:48:07;;;;;;;10.95;7.95;;;;;;;;;;5099524;28;20198;-77
2023/05/02 08:50:37;;;;;;;14.32;9.02;;;;;;;;;;5101506;28;20472;-77
2023/05/02 08:53:04;;;;;;;9.20;6.88;;;;;;;;;;5101404;28;20039;-78
2023/05/02 08:55:30;;;;;;;12.45;7.45;;;;;;;;;;5100224;28;20203;-74
2023/05/02 08:57:57;;;;;;;14.05;7.55;;;;;;;;;;5099509;28;20020;-76
2023/05/02 09:00:23;;;;;;;12.65;7.15;;;;;;;;;;5082296;28;20037;-76
2023/05/02 09:03:08;;;;;;;9.02;6.60;;;;;;;;;;5082153;28;20062;-75
2023/05/02 09:05:39;;;;;;;8.85;6.60;;;;;;;;;;5077890;28;20056;-75
2023/05/02 09:08:05;;;;;;;10.32;7.13;;;;;;;;;;5078866;28;20033;-74
2023/05/02 09:10:35;;;;;;;9.60;7.30;;;;;;;;;;5079374;28;20063;-75
2023/05/02 09:13:28;;;;;;;15.02;7.30;;;;;;;;;;5076697;28;20578;-75
2023/05/02 09:16:08;;;;;;;8.02;6.68;;;;;;;;;;5080169;28;20090;-75
2023/05/02 09:18:39;;;;;;;9.73;6.93;;;;;;;;;;5077390;28;20144;-75
2023/05/02 09:21:08;;;;;;;12.25;7.30;;;;;;;;;;5078959;28;20029;-74
2023/05/02 09:23:35;;;;;;;10.98;7.50;;;;;;;;;;5078558;28;20016;-74
2023/05/02 09:26:01;;;;;;;12.82;7.25;;;;;;;;;;5095146;28;20039;-74
2023/05/02 09:28:51;;;;;;;13.38;7.78;;;;;;;;;;5097987;28;20074;-74
2023/05/02 09:31:18;;;;;;;11.90;8.27;;;;;;;;;;5096971;28;20047;-75
2023/05/02 09:33:44;;;;;;;12.52;8.02;;;;;;;;;;5100179;28;20099;-75
2023/05/02 09:36:20;;;;;;;12.45;7.47;;;;;;;;;;5101001;28;20034;-75
2023/05/02 09:38:48;;;;;;;12.00;8.43;;;;;;;;;;5100852;28;20060;-73
2023/05/02 09:41:14;;;;;;;12.50;8.82;;;;;;;;;;5100783;28;20472;-73
2023/05/02 09:43:41;;;;;;;15.52;8.88;;;;;;;;;;5099107;28;20032;-74
2023/05/02 09:46:10;;;;;;;12.43;8.57;;;;;;;;;;5098896;28;20023;-74
2023/05/02 09:48:53;;;;;;;17.73;9.88;;;;;;;;;;5098025;28;20032;-74
2023/05/02 09:51:20;;;;;;;12.02;7.93;;;;;;;;;;5101350;28;20073;-76
2023/05/02 09:53:46;;;;;;;13.50;8.07;;;;;;;;;;5099846;28;20543;-75
2023/05/02 09:56:12;;;;;;;10.90;7.90;;;;;;;;;;5096453;28;20035;-74
2023/05/02 09:58:39;;;;;;;12.27;8.95;;;;;;;;;;5097814;28;20381;-74
2023/05/02 10:01:05;;;;;;;10.75;8.18;;;;;;;;;;5098390;28;20525;-75
2023/05/02 10:03:31;;;;;;;10.25;7.07;;;;;;;;;;5100665;28;20095;-75
2023/05/02 10:05:57;;;;;;;12.35;7.88;;;;;;;;;;5096420;28;20031;-73
2023/05/02 10:08:27;;;;;;;15.13;8.68;;;;;;;;;;5096400;28;20037;-73
2023/05/02 10:10:57;;;;;;;13.70;8.20;;;;;;;;;;5100330;28;20043;-75
2023/05/02 10:13:26;;;;;;;17.90;8.57;;;;;;;;;;5101724;28;20028;-75
2023/05/02 10:16:03;;;;;;;13.88;9.35;;;;;;;;;;5102929;28;20052;-75
2023/05/02 10:18:29;;;;;;;13.75;9.18;;;;;;;;;;5103765;28;20028;-75
2023/05/02 10:21:00;;;;;;;10.57;7.38;;;;;;;;;;5104089;28;20089;-74
2023/05/02 10:23:27;;;;;;;11.25;8.55;;;;;;;;;;5102361;28;20024;-75
2023/05/02 10:25:53;;;;;;;11.35;8.23;;;;;;;;;;5083559;28;20032;-75
2023/05/02 10:28:20;;;;;;;14.27;8.30;;;;;;;;;;5072891;28;20044;-74
2023/05/02 10:30:47;;;;;;;9.57;7.80;;;;;;;;;;5075793;28;20128;-73
2023/05/02 10:33:13;;;;;;;18.50;10.07;;;;;;;;;;5078435;28;20481;-74
2023/05/02 10:35:43;;;;;;;14.20;8.80;;;;;;;;;;5075677;28;20052;-74
2023/05/02 10:38:10;;;;;;;16.33;8.88;;;;;;;;;;5073038;28;20086;-73
2023/05/02 10:40:36;;;;;;;12.32;8.15;;;;;;;;;;5075972;28;20514;-74
2023/05/02 10:43:03;;;;;;;12.88;9.20;;;;;;;;;;5076104;28;20043;-74
2023/05/02 10:45:33;;;;;;;18.65;9.48;;;;;;;;;;5078017;28;20074;-75
2023/05/02 10:48:19;;;;;;;14.95;8.70;;;;;;;;;;5076620;28;20028;-75
2023/05/02 10:50:48;;;;;;;18.90;9.43;;;;;;;;;;5076460;28;20028;-74
2023/05/02 10:53:24;;;;;;;14.85;9.35;;;;;;;;;;5074844;28;20024;-75
2023/05/02 10:56:09;;;;;;;21.23;10.50;;;;;;;;;;5070515;28;20094;-74
2023/05/02 10:58:36;;;;;;;14.82;9.82;;;;;;;;;;5070975;28;20082;-74
2023/05/02 11:01:21;;;;;;;19.40;9.93;;;;;;;;;;5074334;28;20262;-75
2023/05/02 11:03:57;;;;;;;16.30;10.18;;;;;;;;;;5071655;28;20078;-74
2023/05/02 11:06:24;;;;;;;23.17;9.93;;;;;;;;;;5073521;28;20021;-75
2023/05/02 11:08:50;;;;;;;12.15;8.85;;;;;;;;;;5075507;28;20609;-75
2023/05/02 11:11:35;;;;;;;12.77;9.50;;;;;;;;;;5077182;28;20024;-74
2023/05/02 11:14:01;;;;;;;14.20;8.95;;;;;;;;;;5076918;28;20089;-74
2023/05/02 11:16:28;;;;;;;12.52;7.72;;;;;;;;;;5076404;28;20021;-74
2023/05/02 11:18:58;;;;;;;13.88;8.05;;;;;;;;;;5074563;28;20032;-75
2023/05/02 11:21:28;;;;;;;13.35;7.78;;;;;;;;;;5075866;28;20100;-75
2023/05/02 11:24:13;;;;;;;9.05;7.00;;;;;;;;;;5073517;28;20036;-75
2023/05/02 11:26:39;;;;;;;13.27;7.18;;;;;;;;;;5072848;28;20040;-75
2023/05/02 11:29:05;;;;;;;10.50;6.75;;;;;;;;;;5076659;28;20036;-74
2023/05/02 11:31:31;;;;;;;11.45;7.47;;;;;;;;;;5074689;28;20119;-74
2023/05/02 11:34:01;;;;;;;10.38;7.18;;;;;;;;;;5075855;28;20040;-74
2023/05/02 11:36:32;;;;;;;11.57;6.97;;;;;;;;;;5073984;28;20426;-74
2023/05/02 11:38:58;;;;;;;11.90;5.95;;;;;;;;;;5074540;28;20270;-74
2023/05/02 11:41:37;;;;;;;8.45;6.03;;;;;;;;;;5075779;28;20028;-74
2023/05/02 11:44:03;;;;;;;13.30;6.55;;;;;;;;;;5074466;28;20029;-74
2023/05/02 11:46:30;;;;;;;7.72;6.05;;;;;;;;;;5073742;28;20029;-74
2023/05/02 11:48:56;;;;;;;9.15;6.57;;;;;;;;;;5075074;28;20033;-75
2023/05/02 11:51:22;;;;;;;15.73;6.70;;;;;;;;;;5073474;28;20025;-75
2023/05/02 11:53:49;;;;;;;11.57;7.57;;;;;;;;;;5073100;28;20092;-75
2023/05/02 11:56:15;;;;;;;11.32;7.22;;;;;;;;;;5073401;28;20085;-75
2023/05/02 11:58:42;;;;;;;9.07;6.32;;;;;;;;;;5071678;28;20131;-74
2023/05/02 12:01:12;;;;;;;8.65;6.65;;;;;;;;;;5073498;28;20485;-74
2023/05/02 12:03:38;;;;;;;;;;;;;;;;;;5077038;28;20094;-74
2023/05/02 12:06:10;;;;;;;14.05;7.22;;;;;;;;;;5073727;28;20049;-75
2023/05/02 12:08:37;;;;;;;8.95;6.13;;;;;;;;;;5074294;28;20040;-74
2023/05/02 12:11:03;;;;;;;14.30;5.57;;;;;;;;;;5075303;28;20029;-74
2023/05/02 12:13:29;;;;;;;15.32;7.03;;;;;;;;;;5072095;28;20082;-74
2023/05/02 12:15:56;;;;;;;11.00;6.22;;;;;;;;;;5069633;28;20020;-73
2023/05/02 12:18:23;;;;;;;10.70;5.85;;;;;;;;;;5072576;28;20234;-73
2023/05/02 12:20:53;;;;;;;6.82;5.50;;;;;;;;;;5071900;28;20086;-73
2023/05/02 12:23:19;;;;;;;11.07;6.72;;;;;;;;;;5069389;28;20025;-74
2023/05/02 12:25:46;;;;;;;8.25;5.78;;;;;;;;;;5084343;28;20024;-74
2023/05/02 12:28:12;;;;;;;5.60;4.00;;;;;;;;;;5092493;28;20047;-74
2023/05/02 12:30:39;;;;;;;7.82;5.35;;;;;;;;;;5093526;28;20034;-74
2023/05/02 12:33:05;;;;;;;10.88;5.18;;;;;;;;;;5095331;28;20021;-74
2023/05/02 12:35:32;;;;;;;4.45;4.00;;;;;;;;;;5093673;28;20058;-74
2023/05/02 12:38:11;;;;;;;5.20;4.70;;;;;;;;;;5092396;28;20048;-74
2023/05/02 12:40:38;;;;;;;6.38;4.57;;;;;;;;;;5093202;28;20464;-74
2023/05/02 12:43:07;;;;;;;6.75;4.38;;;;;;;;;;5097227;28;20016;-74
2023/05/02 12:45:33;;;;;;;6.10;4.22;;;;;;;;;;5098563;28;20030;-75
2023/05/02 12:48:18;;;;;;;8.88;4.97;;;;;;;;;;5098587;28;20384;-74
2023/05/02 12:50:44;;;;;;;5.97;4.68;;;;;;;;;;5097005;28;20073;-74
2023/05/02 12:53:10;;;;;;;7.07;5.35;;;;;;;;;;5097297;28;20107;-75
2023/05/02 12:55:36;;;;;;;10.48;5.65;;;;;;;;;;5092113;28;20028;-75
2023/05/02 12:58:03;;;;;;;5.25;4.30;;;;;;;;;;5092440;28;20035;-74
2023/05/02 13:00:30;;;;;;;7.45;5.28;;;;;;;;;;5098283;28;20086;-74
2023/05/02 13:02:56;;;;;;;8.02;4.63;;;;;;;;;;5089772;28;20349;-74
2023/05/02 13:05:22;;;;;;;5.65;3.75;;;;;;;;;;5092943;28;20468;-74
2023/05/02 13:07:48;;;;;;;6.07;3.88;;;;;;;;;;5096303;28;20024;-74
2023/05/02 13:10:16;;;;;;;6.55;3.70;;;;;;;;;;5097261;28;20028;-74
2023/05/02 13:12:43;;;;;;;3.75;3.40;;;;;;;;;;5100890;28;20024;-74
2023/05/02 13:15:09;;;;;;;3.17;2.88;;;;;;;;;;5099751;28;20024;-74
2023/05/02 13:17:35;;;;;;;3.67;3.10;;;;;;;;;;5099127;28;20020;-74
2023/05/02 13:20:01;;;;;;;3.78;3.30;;;;;;;;;;5089360;28;20032;-75
2023/05/02 13:22:28;;;;;;;4.35;3.65;;;;;;;;;;5094507;28;20087;-74
2023/05/02 13:24:54;;;;;;;4.63;4.20;;;;;;;;;;5088155;28;20024;-74
2023/05/02 13:27:22;;;;;;;4.32;3.92;;;;;;;;;;5071135;28;20524;-74
2023/05/02 13:29:49;;;;;;;4.37;3.97;;;;;;;;;;5069949;28;20043;-74
2023/05/02 13:32:15;;;;;;;6.10;3.70;;;;;;;;;;5073250;28;20258;-74
2023/05/02 13:34:41;;;;;;;4.03;3.63;;;;;;;;;;5076518;28;20035;-75
2023/05/02 13:37:07;;;;;;;4.05;3.55;;;;;;;;;;5081269;28;20025;-75
2023/05/02 13:39:33;;;;;;;5.80;3.42;;;;;;;;;;5080408;28;20028;-75
2023/05/02 13:42:02;;;;;;;4.85;4.28;;;;;;;;;;5080677;28;20036;-75
2023/05/02 13:44:28;;;;;;;5.65;3.85;;;;;;;;;;5079713;28;20021;-75
2023/05/02 13:46:54;;;;;;;5.53;3.78;;;;;;;;;;5073350;28;20050;-75
2023/05/02 13:49:20;;;;;;;5.55;2.88;;;;;;;;;;5071095;28;20032;-75
2023/05/02 13:51:46;;;;;;;4.38;3.22;;;;;;;;;;5075389;28;20063;-74
2023/05/02 13:54:13;;;;;;;3.50;2.97;;;;;;;;;;5075956;28;20036;-74
2023/05/02 13:56:39;;;;;;;3.67;2.95;;;;;;;;;;5074946;28;20374;-75
2023/05/02 13:59:05;;;;;;;4.90;3.72;;;;;;;;;;5071506;28;20027;-75
2023/05/02 14:01:32;;;;;;;3.15;2.78;;;;;;;;;;5070769;28;20029;-74
2023/05/02 14:03:58;;;;;;;2.90;2.50;;;;;;;;;;5072833;28;20111;-74
2023/05/02 14:06:24;;;;;;;3.65;2.80;;;;;;;;;;5068340;28;20436;-77
2023/05/02 14:08:50;;;;;;;2.95;2.75;;;;;;;;;;5069238;28;20036;-76
2023/05/02 14:11:16;;;;;;;4.28;2.15;;;;;;;;;;5078665;28;20017;-74
2023/05/02 14:13:44;;;;;;;2.47;2.28;;;;;;;;;;5076125;28;20059;-74
2023/05/02 14:16:12;;;;;;;2.92;2.58;;;;;;;;;;5077026;28;20028;-75
2023/05/02 14:18:38;;;;;;;4.65;2.72;;;;;;;;;;5079588;28;20035;-77
2023/05/02 14:21:04;;;;;;;3.40;3.10;;;;;;;;;;5078428;28;20104;-75
2023/05/02 14:23:30;;;;;;;3.15;2.47;;;;;;;;;;5072374;28;20057;-76
2023/05/02 14:25:57;;;;;;;2.80;2.58;;;;;;;;;;5076968;28;20021;-74
2023/05/02 14:28:23;;;;;;;2.95;2.35;;;;;;;;;;5072319;28;20163;-75
2023/05/02 14:30:49;;;;;;;5.13;3.28;;;;;;;;;;5072453;28;20070;-75
2023/05/02 14:33:16;;;;;;;3.97;2.50;;;;;;;;;;5076113;28;20451;-75
2023/05/02 14:35:42;;;;;;;2.60;2.20;;;;;;;;;;5073829;28;20402;-74
2023/05/02 14:38:08;;;;;;;2.97;2.75;;;;;;;;;;5070830;28;20028;-75
2023/05/02 14:40:34;;;;;;;5.15;3.05;;;;;;;;;;5074432;28;20025;-75
2023/05/02 14:43:00;;;;;;;3.75;3.08;;;;;;;;;;5076213;28;20020;-76
2023/05/02 14:45:27;;;;;;;3.75;3.03;;;;;;;;;;5073036;28;20443;-75
2023/05/02 14:47:53;;;;;;;1.95;1.80;;;;;;;;;;5078698;28;20078;-76
2023/05/02 14:50:19;;;;;;;3.58;2.47;;;;;;;;;;5078413;28;20067;-76
2023/05/02 14:52:45;;;;;;;7.28;2.90;;;;;;;;;;5072526;28;20388;-76
2023/05/02 14:55:11;;;;;;;2.70;2.45;;;;;;;;;;5066997;28;20036;-75
2023/05/02 14:57:37;;;;;;;3.13;2.42;;;;;;;;;;5065558;28;20021;-76
2023/05/02 15:00:04;;;;;;;4.68;3.05;;;;;;;;;;5070613;28;20028;-75
2023/05/02 15:02:30;;;;;;;4.93;2.92;;;;;;;;;;5074611;28;20026;-75
2023/05/02 15:04:56;;;;;;;4.25;3.05;;;;;;;;;;5073740;28;20025;-75
2023/05/02 15:07:22;;;;;;;3.92;3.35;;;;;;;;;;5072539;28;20059;-75
2023/05/02 15:09:48;;;;;;;3.80;3.17;;;;;;;;;;5071431;28;20067;-76
2023/05/02 15:12:14;;;;;;;5.95;2.50;;;;;;;;;;5076060;28;20028;-75
2023/05/02 15:14:43;;;;;;;3.55;2.65;;;;;;;;;;5070742;28;20024;-75
2023/05/02 15:17:11;;;;;;;2.75;2.55;;;;;;;;;;5071819;28;20093;-75
2023/05/02 15:19:37;;;;;;;2.95;2.75;;;;;;;;;;5075879;28;20040;-75
2023/05/02 15:22:03;;;;;;;3.88;2.88;;;;;;;;;;5076283;28;20029;-75